createdAt,value
2022-11-30T00:00:21.578Z,8.00
2022-11-30T00:02:54.057Z,8.00
2022-11-30T00:05:22.565Z,8.00
2022-11-30T00:07:50.092Z,8.00
2022-11-30T00:10:17.563Z,8.00
2022-11-30T00:12:44.893Z,8.00
2022-11-30T00:15:14.593Z,8.00
2022-11-30T00:17:41.582Z,8.00
2022-11-30T00:20:09.927Z,8.00
2022-11-30T00:22:36.888Z,8.10
2022-11-30T00:25:04.702Z,8.10
2022-11-30T00:27:33.195Z,8.00
2022-11-30T00:30:00.752Z,8.10
2022-11-30T00:32:28.216Z,8.10
2022-11-30T00:34:55.293Z,8.10
2022-11-30T00:37:22.583Z,8.10
2022-11-30T00:39:49.354Z,8.10
2022-11-30T00:42:16.313Z,8.10
2022-11-30T00:44:43.174Z,8.10
2022-11-30T00:47:10.171Z,8.10
2022-11-30T00:49:37.780Z,8.10
2022-11-30T00:52:05.229Z,8.10
2022-11-30T00:54:32.088Z,8.10
2022-11-30T00:56:59.110Z,8.10
2022-11-30T00:59:26.024Z,8.10
2022-11-30T01:01:54.459Z,8.10
2022-11-30T01:04:21.974Z,8.10
2022-11-30T01:06:48.849Z,8.10
2022-11-30T01:09:16.013Z,8.10
2022-11-30T01:11:42.952Z,8.10
2022-11-30T01:14:09.933Z,8.10
2022-11-30T01:16:39.430Z,8.00
2022-11-30T01:19:06.442Z,8.00
2022-11-30T01:21:33.426Z,8.00
2022-11-30T01:24:00.292Z,8.00
2022-11-30T01:26:27.997Z,7.90
2022-11-30T01:28:56.076Z,8.00
2022-11-30T01:31:24.779Z,7.90
2022-11-30T01:33:53.766Z,7.90
2022-11-30T01:36:26.058Z,7.90
2022-11-30T01:38:55.833Z,7.90
2022-11-30T01:41:26.938Z,7.80
2022-11-30T01:44:06.974Z,7.80
2022-11-30T01:46:54.026Z,7.80
2022-11-30T01:49:33.271Z,7.80
2022-11-30T01:52:07.440Z,7.80
2022-11-30T01:54:50.268Z,7.70
2022-11-30T01:57:37.885Z,7.70
2022-11-30T02:00:12.559Z,7.70
2022-11-30T02:03:09.237Z,7.60
2022-11-30T02:05:38.172Z,7.60
2022-11-30T02:08:06.234Z,7.60
2022-11-30T02:10:36.647Z,7.50
2022-11-30T02:13:37.656Z,7.50
2022-11-30T02:16:10.405Z,7.50
2022-11-30T02:18:54.604Z,7.50
2022-11-30T02:21:24.230Z,7.50
2022-11-30T02:24:00.575Z,7.50
2022-11-30T02:26:30.474Z,7.40
2022-11-30T02:29:16.081Z,7.40
2022-11-30T02:32:24.294Z,7.40
2022-11-30T02:34:53.232Z,7.40
2022-11-30T02:37:21.579Z,7.40
2022-11-30T02:39:48.319Z,7.30
2022-11-30T02:42:15.700Z,7.30
2022-11-30T02:44:48.998Z,7.30
2022-11-30T02:47:34.479Z,7.30
2022-11-30T02:50:16.188Z,7.30
2022-11-30T02:52:44.227Z,7.30
2022-11-30T02:55:15.947Z,7.30
2022-11-30T02:57:42.761Z,7.30
2022-11-30T03:00:13.709Z,7.30
2022-11-30T03:02:41.625Z,7.30
2022-11-30T03:05:09.273Z,7.30
2022-11-30T03:07:36.402Z,7.30
2022-11-30T03:10:04.606Z,7.30
2022-11-30T03:12:31.372Z,7.30
2022-11-30T03:14:58.115Z,7.30
2022-11-30T03:17:24.872Z,7.30
2022-11-30T03:19:52.070Z,7.30
2022-11-30T03:22:18.801Z,7.30
2022-11-30T03:24:46.104Z,7.30
2022-11-30T03:27:13.111Z,7.20
2022-11-30T03:29:39.958Z,7.20
2022-11-30T03:32:07.407Z,7.20
2022-11-30T03:34:34.221Z,7.20
2022-11-30T03:37:01.025Z,7.20
2022-11-30T03:39:27.970Z,7.20
2022-11-30T03:41:54.752Z,7.20
2022-11-30T03:44:21.560Z,7.20
2022-11-30T03:46:48.627Z,7.20
2022-11-30T03:49:15.451Z,7.20
2022-11-30T03:51:42.223Z,7.10
2022-11-30T03:54:08.998Z,7.10
2022-11-30T03:56:35.809Z,7.10
2022-11-30T03:59:02.610Z,7.10
2022-11-30T04:01:29.423Z,7.10
2022-11-30T04:03:56.250Z,7.10
2022-11-30T04:06:23.247Z,7.10
2022-11-30T04:08:50.058Z,7.10
2022-11-30T04:11:17.021Z,7.00
2022-11-30T04:13:45.777Z,7.10
2022-11-30T04:16:12.659Z,7.10
2022-11-30T04:18:39.816Z,7.00
2022-11-30T04:21:07.633Z,7.10
2022-11-30T04:23:37.594Z,7.00
2022-11-30T04:26:10.856Z,7.00
2022-11-30T04:28:37.597Z,7.00
2022-11-30T04:31:04.884Z,7.00
2022-11-30T04:33:41.453Z,7.00
2022-11-30T04:36:18.046Z,7.00
2022-11-30T04:38:45.606Z,7.00
2022-11-30T04:41:12.717Z,7.00
2022-11-30T04:43:39.528Z,7.00
2022-11-30T04:46:06.880Z,7.00
2022-11-30T04:48:34.177Z,7.00
2022-11-30T04:51:06.014Z,7.00
2022-11-30T04:53:34.040Z,7.00
2022-11-30T04:56:11.515Z,7.00
2022-11-30T04:58:38.935Z,7.00
2022-11-30T05:01:05.958Z,7.00
2022-11-30T05:03:32.713Z,7.00
2022-11-30T05:05:59.454Z,7.00
2022-11-30T05:08:26.355Z,7.00
2022-11-30T05:10:54.424Z,7.00
2022-11-30T05:13:22.666Z,7.00
2022-11-30T05:15:49.508Z,7.00
2022-11-30T05:18:16.367Z,7.00
2022-11-30T05:20:48.021Z,7.00
2022-11-30T05:23:16.125Z,7.00
2022-11-30T05:25:43.552Z,7.00
2022-11-30T05:28:10.518Z,7.00
2022-11-30T05:30:39.716Z,7.00
2022-11-30T05:33:07.321Z,7.00
2022-11-30T05:35:34.160Z,7.00
2022-11-30T05:38:00.973Z,7.00
2022-11-30T05:40:28.721Z,7.00
2022-11-30T05:42:59.608Z,7.00
2022-11-30T05:45:26.463Z,7.00
2022-11-30T05:47:55.598Z,7.00
2022-11-30T05:50:22.670Z,7.00
2022-11-30T05:52:58.111Z,7.00
2022-11-30T05:55:24.985Z,7.00
2022-11-30T05:57:52.042Z,7.00
2022-11-30T06:00:19.795Z,7.00
2022-11-30T06:02:46.762Z,7.00
2022-11-30T06:05:13.847Z,7.00
2022-11-30T06:07:41.008Z,7.00
2022-11-30T06:10:08.567Z,7.00
2022-11-30T06:12:35.327Z,7.00
2022-11-30T06:15:02.093Z,7.00
2022-11-30T06:17:28.888Z,7.00
2022-11-30T06:19:55.630Z,7.00
2022-11-30T06:22:22.354Z,7.00
2022-11-30T06:24:49.473Z,7.00
2022-11-30T06:27:16.309Z,7.00
2022-11-30T06:29:43.037Z,7.00
2022-11-30T06:32:09.780Z,7.00
2022-11-30T06:34:36.599Z,7.00
2022-11-30T06:37:03.380Z,7.00
2022-11-30T06:39:58.032Z,7.00
2022-11-30T06:42:16.973Z,7.00
2022-11-30T06:44:43.711Z,7.00
2022-11-30T06:47:10.448Z,7.00
2022-11-30T06:49:37.501Z,7.00
2022-11-30T06:52:04.248Z,6.90
2022-11-30T06:54:31.132Z,6.90
2022-11-30T06:56:57.914Z,6.90
2022-11-30T06:59:24.675Z,6.90
2022-11-30T07:01:51.460Z,6.90
2022-11-30T07:04:22.204Z,6.90
2022-11-30T07:06:57.777Z,6.90
2022-11-30T07:09:34.133Z,6.90
2022-11-30T07:12:07.029Z,6.90
2022-11-30T07:18:07.024Z,6.90
2022-11-30T07:20:39.658Z,7.00
2022-11-30T07:23:25.172Z,7.00
2022-11-30T07:26:09.238Z,7.00
2022-11-30T07:28:40.901Z,7.00
2022-11-30T07:31:37.013Z,7.00
2022-11-30T07:34:06.891Z,7.00
2022-11-30T07:36:35.077Z,7.00
2022-11-30T07:39:03.315Z,7.00
2022-11-30T07:41:30.103Z,7.00
2022-11-30T07:43:56.808Z,7.00
2022-11-30T07:46:23.633Z,7.00
2022-11-30T07:48:50.540Z,6.90
2022-11-30T07:51:21.955Z,6.90
2022-11-30T07:53:49.563Z,6.90
2022-11-30T07:56:19.675Z,6.90
2022-11-30T07:58:47.509Z,6.90
2022-11-30T08:01:17.350Z,6.90
2022-11-30T08:03:44.797Z,6.90
2022-11-30T08:06:13.892Z,6.90
2022-11-30T08:08:43.051Z,6.90
2022-11-30T08:11:12.584Z,6.90
2022-11-30T08:13:39.882Z,6.90
2022-11-30T08:16:09.251Z,6.90
2022-11-30T08:18:36.492Z,6.90
2022-11-30T08:21:06.418Z,6.90
2022-11-30T08:23:37.284Z,6.90
2022-11-30T08:26:53.169Z,6.80
2022-11-30T08:29:22.369Z,6.80
2022-11-30T08:31:49.099Z,6.80
2022-11-30T08:34:15.888Z,6.80
2022-11-30T08:36:47.107Z,6.80
2022-11-30T08:39:17.142Z,6.80
2022-11-30T08:41:43.944Z,6.80
2022-11-30T08:44:11.070Z,6.80
2022-11-30T08:46:53.886Z,6.80
2022-11-30T08:49:23.034Z,6.80
2022-11-30T08:52:16.957Z,6.80
2022-11-30T08:54:45.016Z,6.80
2022-11-30T08:57:12.227Z,6.80
2022-11-30T08:59:38.972Z,6.80
2022-11-30T09:02:06.326Z,6.80
2022-11-30T09:04:33.097Z,6.80
2022-11-30T09:07:00.781Z,6.80
2022-11-30T09:09:27.765Z,6.80
2022-11-30T09:11:54.817Z,6.80
2022-11-30T09:14:21.629Z,6.90
2022-11-30T09:16:48.717Z,6.80
2022-11-30T09:19:15.499Z,6.90
2022-11-30T09:21:45.407Z,6.90
2022-11-30T09:24:16.557Z,7.00
2022-11-30T09:26:43.288Z,7.00
2022-11-30T09:29:10.120Z,7.00
2022-11-30T09:31:37.028Z,7.00
2022-11-30T09:34:03.869Z,7.00
2022-11-30T09:36:30.919Z,7.00
2022-11-30T09:38:57.815Z,7.00
2022-11-30T09:41:40.692Z,7.00
2022-11-30T09:44:29.441Z,7.00
2022-11-30T09:47:20.350Z,7.10
2022-11-30T09:49:48.476Z,7.10
2022-11-30T09:52:22.995Z,7.10
2022-11-30T09:54:50.140Z,7.00
2022-11-30T09:57:34.557Z,7.00
2022-11-30T10:00:12.429Z,7.00
2022-11-30T10:02:42.678Z,7.00
2022-11-30T10:05:25.032Z,7.00
2022-11-30T10:08:23.544Z,7.00
2022-11-30T10:11:10.495Z,7.00
2022-11-30T10:13:43.201Z,7.00
2022-11-30T10:16:43.997Z,7.10
2022-11-30T10:19:35.673Z,7.00
2022-11-30T10:22:08.466Z,7.00
2022-11-30T10:24:55.407Z,7.00
2022-11-30T10:27:25.212Z,7.00
2022-11-30T10:29:51.908Z,7.10
2022-11-30T10:32:49.370Z,7.10
2022-11-30T10:35:22.156Z,7.10
2022-11-30T10:37:51.859Z,7.10
2022-11-30T10:40:59.089Z,7.20
2022-11-30T10:43:45.415Z,7.20
2022-11-30T10:46:23.700Z,7.20
2022-11-30T10:49:00.969Z,7.20
2022-11-30T10:51:27.904Z,7.20
2022-11-30T10:53:55.136Z,7.20
2022-11-30T10:56:21.821Z,7.20
2022-11-30T10:59:03.397Z,7.20
2022-11-30T11:01:36.773Z,7.30
2022-11-30T11:04:13.046Z,7.20
2022-11-30T11:06:45.831Z,7.30
2022-11-30T11:09:31.063Z,7.30
2022-11-30T11:12:01.053Z,7.30
2022-11-30T11:14:28.668Z,7.30
2022-11-30T11:17:06.081Z,7.30
2022-11-30T11:19:39.207Z,7.40
2022-11-30T11:22:20.568Z,7.40
2022-11-30T11:24:49.326Z,7.40
2022-11-30T11:27:33.568Z,7.40
2022-11-30T11:30:16.412Z,7.30
2022-11-30T11:33:22.056Z,7.40
2022-11-30T11:35:55.108Z,7.40
2022-11-30T11:38:41.820Z,7.40
2022-11-30T11:41:31.310Z,7.40
2022-11-30T11:44:21.173Z,7.30
2022-11-30T11:47:01.495Z,7.40
2022-11-30T11:49:28.173Z,7.40
2022-11-30T11:52:06.983Z,7.40
2022-11-30T11:54:44.801Z,7.40
2022-11-30T11:57:16.970Z,7.40
2022-11-30T11:59:54.931Z,7.40
2022-11-30T12:02:49.774Z,7.30
2022-11-30T12:05:24.562Z,7.30
2022-11-30T12:08:19.295Z,7.40
2022-11-30T12:11:12.228Z,7.40
2022-11-30T12:13:41.982Z,7.40
2022-11-30T12:16:11.826Z,7.40
2022-11-30T12:18:51.734Z,7.40
2022-11-30T12:21:35.470Z,7.40
2022-11-30T12:24:21.136Z,7.40
2022-11-30T12:26:55.791Z,7.50
2022-11-30T12:29:53.071Z,7.50
2022-11-30T12:32:40.616Z,7.50
2022-11-30T12:35:47.850Z,7.50
2022-11-30T12:38:43.176Z,7.50
2022-11-30T12:41:30.536Z,7.50
2022-11-30T12:44:28.865Z,7.50
2022-11-30T12:47:04.179Z,7.50
2022-11-30T12:49:30.897Z,7.50
2022-11-30T12:52:44.146Z,7.40
2022-11-30T12:55:29.002Z,7.50
2022-11-30T12:58:16.450Z,7.40
2022-11-30T13:00:52.936Z,7.50
2022-11-30T13:03:42.771Z,7.50
2022-11-30T13:06:26.402Z,7.50
2022-11-30T13:08:57.002Z,7.50
2022-11-30T13:11:32.005Z,7.50
2022-11-30T13:14:00.121Z,7.50
2022-11-30T13:16:29.487Z,7.50
2022-11-30T13:19:10.484Z,7.40
2022-11-30T13:21:49.268Z,7.50
2022-11-30T13:24:28.804Z,7.40
2022-11-30T13:27:06.278Z,7.40
2022-11-30T13:29:54.860Z,7.40
2022-11-30T13:32:56.016Z,7.50
2022-11-30T13:35:27.649Z,7.50
2022-11-30T13:41:07.830Z,7.50
2022-11-30T13:43:40.530Z,7.50
2022-11-30T13:46:15.329Z,7.50
2022-11-30T13:48:44.080Z,7.50
2022-11-30T13:51:11.885Z,7.50
2022-11-30T13:53:39.314Z,7.50
2022-11-30T13:56:27.312Z,7.50
2022-11-30T13:59:23.270Z,7.50
2022-11-30T14:01:51.123Z,7.50
2022-11-30T14:04:18.285Z,7.50
2022-11-30T14:06:55.233Z,7.50
2022-11-30T14:09:40.109Z,7.60
2022-11-30T14:12:32.590Z,7.50
2022-11-30T14:15:00.128Z,7.50
2022-11-30T14:17:29.070Z,7.50
2022-11-30T14:20:07.428Z,7.50
2022-11-30T14:22:34.771Z,7.50
2022-11-30T14:25:02.957Z,7.40
2022-11-30T14:27:30.380Z,7.40
2022-11-30T14:30:01.695Z,7.40
2022-11-30T14:32:35.418Z,7.40
2022-11-30T14:35:08.033Z,7.40
2022-11-30T14:37:43.296Z,7.40
2022-11-30T14:40:19.290Z,7.40
2022-11-30T14:43:08.706Z,7.40
2022-11-30T14:45:36.444Z,7.40
2022-11-30T14:48:10.425Z,7.40
2022-11-30T14:50:43.608Z,7.40
2022-11-30T14:53:28.334Z,7.40
2022-11-30T14:56:01.231Z,7.40
2022-11-30T14:58:35.928Z,7.40
2022-11-30T15:01:16.032Z,7.40
2022-11-30T15:03:42.935Z,7.40
2022-11-30T15:06:17.380Z,7.40
2022-11-30T15:08:57.971Z,7.40
2022-11-30T15:11:25.366Z,7.40
2022-11-30T15:13:55.958Z,7.40
2022-11-30T15:16:25.485Z,7.40
2022-11-30T15:18:54.145Z,7.40
2022-11-30T15:21:26.396Z,7.40
2022-11-30T15:23:55.431Z,7.30
2022-11-30T15:26:33.907Z,7.30
2022-11-30T15:29:07.922Z,7.30
2022-11-30T15:31:37.976Z,7.30
2022-11-30T15:34:07.144Z,7.30
2022-11-30T15:36:36.460Z,7.30
2022-11-30T15:39:06.266Z,7.30
2022-11-30T15:41:34.670Z,7.30
2022-11-30T15:44:04.647Z,7.30
2022-11-30T15:46:31.722Z,7.30
2022-11-30T15:49:16.996Z,7.30
2022-11-30T15:51:46.889Z,7.30
2022-11-30T15:54:13.828Z,7.30
2022-11-30T15:56:40.596Z,7.30
2022-11-30T15:59:22.038Z,7.30
2022-11-30T16:02:14.390Z,7.30
2022-11-30T16:05:08.420Z,7.30
2022-11-30T16:07:47.520Z,7.30
2022-11-30T16:10:21.516Z,7.20
2022-11-30T16:12:50.325Z,7.20
2022-11-30T16:15:17.007Z,7.20
2022-11-30T16:17:43.745Z,7.20
2022-11-30T16:20:14.350Z,7.20
2022-11-30T16:22:42.750Z,7.20
2022-11-30T16:25:19.025Z,7.20
2022-11-30T16:27:47.663Z,7.20
2022-11-30T16:30:16.597Z,7.20
2022-11-30T16:32:43.783Z,7.10
2022-11-30T16:35:44.697Z,7.10
2022-11-30T16:38:11.528Z,7.10
2022-11-30T16:40:39.200Z,7.10
2022-11-30T16:43:06.366Z,7.10
2022-11-30T16:45:36.324Z,7.10
2022-11-30T16:48:03.614Z,7.10
2022-11-30T16:50:32.468Z,7.10
2022-11-30T16:52:59.243Z,7.10
2022-11-30T16:55:31.205Z,7.10
2022-11-30T16:57:58.561Z,7.10
2022-11-30T17:00:25.327Z,7.00
2022-11-30T17:02:56.806Z,7.10
2022-11-30T17:05:23.986Z,7.00
2022-11-30T17:07:50.768Z,7.00
2022-11-30T17:10:17.731Z,7.00
2022-11-30T17:12:44.630Z,7.00
2022-11-30T17:15:17.749Z,7.00
2022-11-30T17:17:44.635Z,7.00
2022-11-30T17:20:12.976Z,7.00
2022-11-30T17:22:40.432Z,7.00
2022-11-30T17:25:11.317Z,7.00
2022-11-30T17:27:38.004Z,7.00
2022-11-30T17:30:05.759Z,7.00
2022-11-30T17:32:32.548Z,7.00
2022-11-30T17:35:01.092Z,7.00
2022-11-30T17:37:27.904Z,7.00
2022-11-30T17:39:54.620Z,7.00
2022-11-30T17:42:22.190Z,6.90
2022-11-30T17:44:49.492Z,7.00
2022-11-30T17:47:16.590Z,7.00
2022-11-30T17:49:43.366Z,7.00
2022-11-30T17:52:10.348Z,7.00
2022-11-30T17:54:37.139Z,7.00
2022-11-30T17:57:03.853Z,7.00
2022-11-30T17:59:30.551Z,7.00
2022-11-30T18:01:58.557Z,7.00
2022-11-30T18:04:25.453Z,7.00
2022-11-30T18:06:52.344Z,6.90
2022-11-30T18:09:19.109Z,7.00
2022-11-30T18:11:46.497Z,6.90
2022-11-30T18:14:13.377Z,6.90
2022-11-30T18:16:40.291Z,6.90
2022-11-30T18:19:11.923Z,6.90
2022-11-30T18:21:40.348Z,6.80
2022-11-30T18:24:07.774Z,6.80
2022-11-30T18:26:35.565Z,6.80
2022-11-30T18:29:02.787Z,6.80
2022-11-30T18:31:31.281Z,6.80
2022-11-30T18:34:00.824Z,6.80
2022-11-30T18:36:28.565Z,6.80
2022-11-30T18:38:55.724Z,6.80
2022-11-30T18:41:24.072Z,6.80
2022-11-30T18:43:50.900Z,6.80
2022-11-30T18:46:17.713Z,6.80
2022-11-30T18:48:48.842Z,6.80
2022-11-30T18:51:22.095Z,6.80
2022-11-30T18:53:49.769Z,6.80
2022-11-30T18:56:19.682Z,6.80
2022-11-30T18:58:47.179Z,6.80
2022-11-30T19:01:16.625Z,6.80
2022-11-30T19:03:43.901Z,6.80
2022-11-30T19:06:11.025Z,6.80
2022-11-30T19:08:39.554Z,6.80
2022-11-30T19:11:08.351Z,6.80
2022-11-30T19:13:35.625Z,6.80
2022-11-30T19:16:04.469Z,6.80
2022-11-30T19:18:31.639Z,6.80
2022-11-30T19:20:58.580Z,6.80
2022-11-30T19:23:25.898Z,6.80
2022-11-30T19:25:52.674Z,6.80
2022-11-30T19:28:19.524Z,6.80
2022-11-30T19:30:46.282Z,6.80
2022-11-30T19:33:14.180Z,6.80
2022-11-30T19:35:41.046Z,6.80
2022-11-30T19:38:07.825Z,6.80
2022-11-30T19:40:37.678Z,6.80
2022-11-30T19:43:04.773Z,6.80
2022-11-30T19:45:31.648Z,6.80
2022-11-30T19:47:58.391Z,6.80
2022-11-30T19:50:25.258Z,6.80
2022-11-30T19:52:52.010Z,6.80
2022-11-30T19:55:18.784Z,6.80
2022-11-30T19:57:45.538Z,6.80
2022-11-30T20:00:13.028Z,6.80
2022-11-30T20:02:40.363Z,6.80
2022-11-30T20:05:07.476Z,6.80
2022-11-30T20:07:36.439Z,6.70
2022-11-30T20:10:04.070Z,6.70
2022-11-30T20:12:31.037Z,6.70
2022-11-30T20:14:57.804Z,6.70
2022-11-30T20:17:24.618Z,6.70
2022-11-30T20:19:51.585Z,6.70
2022-11-30T20:22:18.438Z,6.70
2022-11-30T20:24:45.704Z,6.70
2022-11-30T20:27:12.777Z,6.70
2022-11-30T20:29:39.491Z,6.70
2022-11-30T20:32:06.315Z,6.70
2022-11-30T20:34:39.728Z,6.70
2022-11-30T20:37:09.250Z,6.70
2022-11-30T20:39:37.946Z,6.70
2022-11-30T20:42:08.677Z,6.70
2022-11-30T20:44:35.624Z,6.70
2022-11-30T20:47:02.756Z,6.70
2022-11-30T20:49:29.753Z,6.70
2022-11-30T20:51:56.710Z,6.70
2022-11-30T20:54:23.649Z,6.70
2022-11-30T20:56:51.326Z,6.70
2022-11-30T20:59:23.641Z,6.70
2022-11-30T21:01:51.107Z,6.70
2022-11-30T21:04:18.221Z,6.70
2022-11-30T21:06:47.926Z,6.70
2022-11-30T21:09:16.865Z,6.70
2022-11-30T21:11:44.559Z,6.70
2022-11-30T21:14:12.574Z,6.70
2022-11-30T21:16:40.479Z,6.70
2022-11-30T21:19:07.621Z,6.70
2022-11-30T21:21:35.537Z,6.80
2022-11-30T21:24:06.709Z,6.80
2022-11-30T21:26:36.071Z,6.80
2022-11-30T21:29:16.071Z,6.80
2022-11-30T21:31:43.678Z,6.70
2022-11-30T21:34:10.837Z,6.80
2022-11-30T21:36:38.543Z,6.70
2022-11-30T21:39:07.349Z,6.70
2022-11-30T21:41:38.824Z,6.70
2022-11-30T21:44:07.912Z,6.70
2022-11-30T21:46:34.863Z,6.70
2022-11-30T21:49:02.090Z,6.70
2022-11-30T21:51:30.290Z,6.70
2022-11-30T21:54:00.109Z,6.70
2022-11-30T21:56:33.039Z,6.70
2022-11-30T21:59:00.108Z,6.70
2022-11-30T22:01:32.769Z,6.70
2022-11-30T22:04:01.678Z,6.70
2022-11-30T22:06:29.878Z,6.70
2022-11-30T22:09:02.793Z,6.70
2022-11-30T22:11:30.803Z,6.70
2022-11-30T22:13:59.970Z,6.70
2022-11-30T22:16:32.588Z,6.70
2022-11-30T22:19:05.397Z,6.70
2022-11-30T22:21:33.250Z,6.70
2022-11-30T22:24:05.189Z,6.70
2022-11-30T22:26:38.814Z,6.70
2022-11-30T22:29:08.392Z,6.70
2022-11-30T22:31:38.376Z,6.70
2022-11-30T22:34:06.075Z,6.70
2022-11-30T22:36:39.831Z,6.70
2022-11-30T22:39:27.003Z,6.70
2022-11-30T22:41:56.128Z,6.70
2022-11-30T22:44:26.716Z,6.70
2022-11-30T22:46:53.704Z,6.70
2022-11-30T22:49:21.835Z,6.70
2022-11-30T22:51:49.742Z,6.70
2022-11-30T22:54:19.143Z,6.60
2022-11-30T22:56:46.398Z,6.70
2022-11-30T22:59:13.522Z,6.70
2022-11-30T23:01:52.368Z,6.70
2022-11-30T23:04:21.298Z,6.70
2022-11-30T23:06:49.394Z,6.60
2022-11-30T23:09:19.319Z,6.60
2022-11-30T23:11:46.732Z,6.60
2022-11-30T23:14:15.910Z,6.60
2022-11-30T23:16:43.726Z,6.60
2022-11-30T23:19:12.172Z,6.60
2022-11-30T23:21:42.225Z,6.60
2022-11-30T23:24:13.720Z,6.60
2022-11-30T23:26:41.480Z,6.60
2022-11-30T23:29:11.916Z,6.50
2022-11-30T23:31:40.273Z,6.50
2022-11-30T23:34:12.884Z,6.50
2022-11-30T23:36:39.712Z,6.50
2022-11-30T23:39:09.841Z,6.50
2022-11-30T23:41:37.104Z,6.50
2022-11-30T23:44:04.147Z,6.50
2022-11-30T23:46:31.157Z,6.50
2022-11-30T23:48:57.962Z,6.50
2022-11-30T23:51:25.323Z,6.50
2022-11-30T23:53:52.531Z,6.50
2022-11-30T23:56:21.832Z,6.50
2022-11-30T23:58:48.700Z,6.50
